sensor_id;sensor_type;location;lat;lon;timestamp;P1;durP1;ratioP1;P2;durP2;ratioP2
42384;SDS011;28042;43.986;22.860;2023-04-24T00:00:33;12.77;;;7.85;;
42384;SDS011;28042;43.986;22.860;2023-04-24T00:02:58;9.15;;;7.10;;
42384;SDS011;28042;43.986;22.860;2023-04-24T00:05:24;9.52;;;6.70;;
42384;SDS011;28042;43.986;22.860;2023-04-24T00:07:50;12.32;;;7.20;;
42384;SDS011;28042;43.986;22.860;2023-04-24T00:10:19;11.00;;;7.03;;
42384;SDS011;28042;43.986;22.860;2023-04-24T00:12:45;10.00;;;6.95;;
42384;SDS011;28042;43.986;22.860;2023-04-24T00:15:10;10.13;;;7.40;;
42384;SDS011;28042;43.986;22.860;2023-04-24T00:17:36;11.40;;;7.30;;
42384;SDS011;28042;43.986;22.860;2023-04-24T00:20:02;13.10;;;7.15;;
42384;SDS011;28042;43.986;22.860;2023-04-24T00:22:30;9.02;;;7.10;;
42384;SDS011;28042;43.986;22.860;2023-04-24T00:24:56;13.25;;;8.10;;
42384;SDS011;28042;43.986;22.860;2023-04-24T00:27:22;11.13;;;7.75;;
42384;SDS011;28042;43.986;22.860;2023-04-24T00:29:48;10.77;;;8.13;;
42384;SDS011;28042;43.986;22.860;2023-04-24T00:32:13;13.77;;;8.27;;
42384;SDS011;28042;43.986;22.860;2023-04-24T00:34:39;16.98;;;8.85;;
42384;SDS011;28042;43.986;22.860;2023-04-24T00:37:05;12.48;;;8.50;;
42384;SDS011;28042;43.986;22.860;2023-04-24T00:39:31;13.52;;;8.32;;
42384;SDS011;28042;43.986;22.860;2023-04-24T00:41:56;11.88;;;8.40;;
42384;SDS011;28042;43.986;22.860;2023-04-24T00:44:22;13.43;;;8.05;;
42384;SDS011;28042;43.986;22.860;2023-04-24T00:46:49;14.85;;;8.77;;
42384;SDS011;28042;43.986;22.860;2023-04-24T00:49:22;12.75;;;8.57;;
42384;SDS011;28042;43.986;22.860;2023-04-24T00:51:47;12.52;;;7.60;;
42384;SDS011;28042;43.986;22.860;2023-04-24T00:54:14;10.52;;;7.55;;
42384;SDS011;28042;43.986;22.860;2023-04-24T00:56:40;9.18;;;7.80;;
42384;SDS011;28042;43.986;22.860;2023-04-24T00:59:07;9.48;;;7.68;;
42384;SDS011;28042;43.986;22.860;2023-04-24T01:01:33;11.30;;;7.53;;
42384;SDS011;28042;43.986;22.860;2023-04-24T01:04:00;11.10;;;8.13;;
42384;SDS011;28042;43.986;22.860;2023-04-24T01:06:27;12.13;;;8.98;;
42384;SDS011;28042;43.986;22.860;2023-04-24T01:08:53;10.65;;;8.30;;
42384;SDS011;28042;43.986;22.860;2023-04-24T01:11:20;13.07;;;8.45;;
42384;SDS011;28042;43.986;22.860;2023-04-24T01:13:47;12.88;;;8.70;;
42384;SDS011;28042;43.986;22.860;2023-04-24T01:16:13;12.25;;;8.73;;
42384;SDS011;28042;43.986;22.860;2023-04-24T01:18:40;10.75;;;8.32;;
42384;SDS011;28042;43.986;22.860;2023-04-24T01:21:06;10.85;;;8.23;;
42384;SDS011;28042;43.986;22.860;2023-04-24T01:23:33;10.63;;;7.93;;
42384;SDS011;28042;43.986;22.860;2023-04-24T01:25:59;12.27;;;8.02;;
42384;SDS011;28042;43.986;22.860;2023-04-24T01:28:24;11.30;;;8.82;;
42384;SDS011;28042;43.986;22.860;2023-04-24T01:30:50;14.38;;;8.43;;
42384;SDS011;28042;43.986;22.860;2023-04-24T01:33:16;12.60;;;8.10;;
42384;SDS011;28042;43.986;22.860;2023-04-24T01:35:42;11.70;;;8.25;;
42384;SDS011;28042;43.986;22.860;2023-04-24T01:38:07;12.35;;;8.85;;
42384;SDS011;28042;43.986;22.860;2023-04-24T01:40:33;12.43;;;9.15;;
42384;SDS011;28042;43.986;22.860;2023-04-24T01:42:59;12.38;;;8.27;;
42384;SDS011;28042;43.986;22.860;2023-04-24T01:45:25;11.85;;;8.25;;
42384;SDS011;28042;43.986;22.860;2023-04-24T01:47:51;13.48;;;8.52;;
42384;SDS011;28042;43.986;22.860;2023-04-24T01:50:17;11.07;;;8.07;;
42384;SDS011;28042;43.986;22.860;2023-04-24T01:52:43;10.25;;;8.25;;
42384;SDS011;28042;43.986;22.860;2023-04-24T01:55:09;12.30;;;7.90;;
42384;SDS011;28042;43.986;22.860;2023-04-24T01:57:35;13.68;;;8.60;;
42384;SDS011;28042;43.986;22.860;2023-04-24T02:00:01;11.95;;;8.40;;
42384;SDS011;28042;43.986;22.860;2023-04-24T02:02:29;10.02;;;8.05;;
42384;SDS011;28042;43.986;22.860;2023-04-24T02:04:55;14.90;;;8.82;;
42384;SDS011;28042;43.986;22.860;2023-04-24T02:07:21;12.90;;;9.27;;
42384;SDS011;28042;43.986;22.860;2023-04-24T02:09:47;13.73;;;9.20;;
42384;SDS011;28042;43.986;22.860;2023-04-24T02:12:13;10.82;;;8.30;;
42384;SDS011;28042;43.986;22.860;2023-04-24T02:14:39;11.65;;;7.82;;
42384;SDS011;28042;43.986;22.860;2023-04-24T02:17:05;11.73;;;8.50;;
42384;SDS011;28042;43.986;22.860;2023-04-24T02:19:31;12.98;;;8.52;;
42384;SDS011;28042;43.986;22.860;2023-04-24T02:21:57;12.13;;;8.93;;
42384;SDS011;28042;43.986;22.860;2023-04-24T02:24:24;12.30;;;8.60;;
42384;SDS011;28042;43.986;22.860;2023-04-24T02:26:49;15.13;;;8.80;;
42384;SDS011;28042;43.986;22.860;2023-04-24T02:29:15;14.27;;;8.10;;
42384;SDS011;28042;43.986;22.860;2023-04-24T02:31:40;14.07;;;8.20;;
42384;SDS011;28042;43.986;22.860;2023-04-24T02:34:06;10.57;;;7.97;;
42384;SDS011;28042;43.986;22.860;2023-04-24T02:36:31;12.45;;;8.45;;
42384;SDS011;28042;43.986;22.860;2023-04-24T02:38:57;14.20;;;9.75;;
42384;SDS011;28042;43.986;22.860;2023-04-24T02:41:22;12.13;;;8.77;;
42384;SDS011;28042;43.986;22.860;2023-04-24T02:43:48;13.15;;;8.55;;
42384;SDS011;28042;43.986;22.860;2023-04-24T02:46:13;10.32;;;7.97;;
42384;SDS011;28042;43.986;22.860;2023-04-24T02:48:39;12.75;;;8.07;;
42384;SDS011;28042;43.986;22.860;2023-04-24T02:51:05;12.82;;;8.27;;
42384;SDS011;28042;43.986;22.860;2023-04-24T02:53:31;13.27;;;9.57;;
42384;SDS011;28042;43.986;22.860;2023-04-24T02:55:57;14.63;;;9.43;;
42384;SDS011;28042;43.986;22.860;2023-04-24T02:58:22;13.43;;;8.57;;
42384;SDS011;28042;43.986;22.860;2023-04-24T03:00:48;22.20;;;9.98;;
42384;SDS011;28042;43.986;22.860;2023-04-24T03:03:13;14.10;;;8.88;;
42384;SDS011;28042;43.986;22.860;2023-04-24T03:05:40;11.25;;;8.77;;
42384;SDS011;28042;43.986;22.860;2023-04-24T03:08:06;11.32;;;8.82;;
42384;SDS011;28042;43.986;22.860;2023-04-24T03:10:31;16.88;;;12.95;;
42384;SDS011;28042;43.986;22.860;2023-04-24T03:12:57;20.52;;;12.65;;
42384;SDS011;28042;43.986;22.860;2023-04-24T03:15:22;16.80;;;10.65;;
42384;SDS011;28042;43.986;22.860;2023-04-24T03:17:48;12.60;;;9.20;;
42384;SDS011;28042;43.986;22.860;2023-04-24T03:20:13;16.33;;;9.40;;
42384;SDS011;28042;43.986;22.860;2023-04-24T03:22:41;18.20;;;10.25;;
42384;SDS011;28042;43.986;22.860;2023-04-24T03:25:06;15.43;;;9.52;;
42384;SDS011;28042;43.986;22.860;2023-04-24T03:27:34;15.00;;;10.52;;
42384;SDS011;28042;43.986;22.860;2023-04-24T03:29:59;16.13;;;10.80;;
42384;SDS011;28042;43.986;22.860;2023-04-24T03:32:25;15.45;;;10.25;;
42384;SDS011;28042;43.986;22.860;2023-04-24T03:34:51;23.05;;;11.80;;
42384;SDS011;28042;43.986;22.860;2023-04-24T03:37:16;18.23;;;10.80;;
42384;SDS011;28042;43.986;22.860;2023-04-24T03:39:42;15.65;;;10.55;;
42384;SDS011;28042;43.986;22.860;2023-04-24T03:42:08;14.27;;;10.43;;
42384;SDS011;28042;43.986;22.860;2023-04-24T03:44:34;14.52;;;10.25;;
42384;SDS011;28042;43.986;22.860;2023-04-24T03:47:00;21.95;;;11.20;;
42384;SDS011;28042;43.986;22.860;2023-04-24T03:49:26;14.65;;;11.18;;
42384;SDS011;28042;43.986;22.860;2023-04-24T03:51:52;15.38;;;10.70;;
42384;SDS011;28042;43.986;22.860;2023-04-24T03:54:18;13.82;;;10.00;;
42384;SDS011;28042;43.986;22.860;2023-04-24T03:56:44;16.85;;;10.30;;
42384;SDS011;28042;43.986;22.860;2023-04-24T03:59:10;15.50;;;11.52;;
42384;SDS011;28042;43.986;22.860;2023-04-24T04:01:35;22.58;;;10.27;;
42384;SDS011;28042;43.986;22.860;2023-04-24T04:04:05;11.65;;;9.38;;
42384;SDS011;28042;43.986;22.860;2023-04-24T04:06:31;31.42;;;15.65;;
42384;SDS011;28042;43.986;22.860;2023-04-24T04:08:57;16.20;;;9.20;;
42384;SDS011;28042;43.986;22.860;2023-04-24T04:11:23;12.07;;;9.23;;
42384;SDS011;28042;43.986;22.860;2023-04-24T04:13:49;12.98;;;9.18;;
42384;SDS011;28042;43.986;22.860;2023-04-24T04:16:15;27.48;;;16.92;;
42384;SDS011;28042;43.986;22.860;2023-04-24T04:18:44;15.27;;;10.05;;
42384;SDS011;28042;43.986;22.860;2023-04-24T04:21:10;20.83;;;9.90;;
42384;SDS011;28042;43.986;22.860;2023-04-24T04:23:35;15.15;;;9.25;;
42384;SDS011;28042;43.986;22.860;2023-04-24T04:26:01;14.25;;;9.07;;
42384;SDS011;28042;43.986;22.860;2023-04-24T04:28:28;12.40;;;9.52;;
42384;SDS011;28042;43.986;22.860;2023-04-24T04:30:55;16.35;;;8.98;;
42384;SDS011;28042;43.986;22.860;2023-04-24T04:33:22;14.82;;;9.35;;
42384;SDS011;28042;43.986;22.860;2023-04-24T04:35:49;15.13;;;9.63;;
42384;SDS011;28042;43.986;22.860;2023-04-24T04:38:15;13.30;;;8.50;;
42384;SDS011;28042;43.986;22.860;2023-04-24T04:40:41;13.02;;;9.60;;
42384;SDS011;28042;43.986;22.860;2023-04-24T04:43:07;18.75;;;9.93;;
42384;SDS011;28042;43.986;22.860;2023-04-24T04:45:33;21.35;;;10.20;;
42384;SDS011;28042;43.986;22.860;2023-04-24T04:47:59;16.20;;;9.00;;
42384;SDS011;28042;43.986;22.860;2023-04-24T04:50:26;20.67;;;10.10;;
42384;SDS011;28042;43.986;22.860;2023-04-24T04:52:52;15.68;;;8.95;;
42384;SDS011;28042;43.986;22.860;2023-04-24T04:55:17;17.90;;;10.45;;
42384;SDS011;28042;43.986;22.860;2023-04-24T04:57:45;21.85;;;12.68;;
42384;SDS011;28042;43.986;22.860;2023-04-24T05:00:11;19.80;;;10.25;;
42384;SDS011;28042;43.986;22.860;2023-04-24T05:02:37;14.13;;;9.52;;
42384;SDS011;28042;43.986;22.860;2023-04-24T05:05:04;24.57;;;11.87;;
42384;SDS011;28042;43.986;22.860;2023-04-24T05:07:30;22.38;;;18.05;;
42384;SDS011;28042;43.986;22.860;2023-04-24T05:09:56;29.05;;;13.20;;
42384;SDS011;28042;43.986;22.860;2023-04-24T05:12:21;26.77;;;14.30;;
42384;SDS011;28042;43.986;22.860;2023-04-24T05:14:47;25.35;;;11.00;;
42384;SDS011;28042;43.986;22.860;2023-04-24T05:17:12;12.73;;;9.00;;
42384;SDS011;28042;43.986;22.860;2023-04-24T05:19:38;14.40;;;8.95;;
42384;SDS011;28042;43.986;22.860;2023-04-24T05:22:03;14.27;;;11.23;;
42384;SDS011;28042;43.986;22.860;2023-04-24T05:24:31;21.13;;;18.45;;
42384;SDS011;28042;43.986;22.860;2023-04-24T05:26:58;15.65;;;10.82;;
42384;SDS011;28042;43.986;22.860;2023-04-24T05:29:24;12.63;;;8.57;;
42384;SDS011;28042;43.986;22.860;2023-04-24T05:31:51;14.98;;;8.45;;
42384;SDS011;28042;43.986;22.860;2023-04-24T05:34:16;10.75;;;8.38;;
42384;SDS011;28042;43.986;22.860;2023-04-24T05:36:42;10.82;;;8.40;;
42384;SDS011;28042;43.986;22.860;2023-04-24T05:39:08;9.80;;;7.90;;
42384;SDS011;28042;43.986;22.860;2023-04-24T05:41:33;12.07;;;8.90;;
42384;SDS011;28042;43.986;22.860;2023-04-24T05:43:59;12.25;;;9.25;;
42384;SDS011;28042;43.986;22.860;2023-04-24T05:46:25;11.20;;;9.32;;
42384;SDS011;28042;43.986;22.860;2023-04-24T05:48:50;16.80;;;9.48;;
42384;SDS011;28042;43.986;22.860;2023-04-24T05:51:16;17.92;;;11.05;;
42384;SDS011;28042;43.986;22.860;2023-04-24T05:53:41;17.80;;;12.60;;
42384;SDS011;28042;43.986;22.860;2023-04-24T05:56:07;18.77;;;13.50;;
42384;SDS011;28042;43.986;22.860;2023-04-24T05:58:32;17.35;;;13.90;;
42384;SDS011;28042;43.986;22.860;2023-04-24T06:00:58;19.10;;;13.30;;
42384;SDS011;28042;43.986;22.860;2023-04-24T06:03:25;15.18;;;11.48;;
42384;SDS011;28042;43.986;22.860;2023-04-24T06:05:52;14.65;;;9.50;;
42384;SDS011;28042;43.986;22.860;2023-04-24T06:08:18;16.15;;;11.98;;
42384;SDS011;28042;43.986;22.860;2023-04-24T06:14:05;23.00;;;16.00;;
42384;SDS011;28042;43.986;22.860;2023-04-24T06:16:31;28.10;;;16.30;;
42384;SDS011;28042;43.986;22.860;2023-04-24T06:18:56;19.70;;;12.07;;
42384;SDS011;28042;43.986;22.860;2023-04-24T06:21:22;14.18;;;9.55;;
42384;SDS011;28042;43.986;22.860;2023-04-24T06:23:47;11.65;;;8.93;;
42384;SDS011;28042;43.986;22.860;2023-04-24T06:26:13;12.48;;;9.05;;
42384;SDS011;28042;43.986;22.860;2023-04-24T06:28:38;10.57;;;8.10;;
42384;SDS011;28042;43.986;22.860;2023-04-24T06:31:04;12.05;;;7.43;;
42384;SDS011;28042;43.986;22.860;2023-04-24T06:33:29;12.50;;;7.28;;
42384;SDS011;28042;43.986;22.860;2023-04-24T06:35:55;14.27;;;7.50;;
42384;SDS011;28042;43.986;22.860;2023-04-24T06:38:20;9.95;;;6.38;;
42384;SDS011;28042;43.986;22.860;2023-04-24T06:40:46;10.02;;;6.53;;
42384;SDS011;28042;43.986;22.860;2023-04-24T06:43:11;14.60;;;6.45;;
42384;SDS011;28042;43.986;22.860;2023-04-24T06:45:37;10.85;;;6.55;;
42384;SDS011;28042;43.986;22.860;2023-04-24T06:48:04;10.23;;;6.45;;
42384;SDS011;28042;43.986;22.860;2023-04-24T06:50:30;9.55;;;6.43;;
42384;SDS011;28042;43.986;22.860;2023-04-24T06:52:55;11.65;;;6.93;;
42384;SDS011;28042;43.986;22.860;2023-04-24T06:55:21;12.13;;;8.13;;
42384;SDS011;28042;43.986;22.860;2023-04-24T06:57:46;12.35;;;8.57;;
42384;SDS011;28042;43.986;22.860;2023-04-24T07:00:12;16.35;;;9.30;;
42384;SDS011;28042;43.986;22.860;2023-04-24T07:02:38;12.60;;;8.70;;
42384;SDS011;28042;43.986;22.860;2023-04-24T07:05:04;12.85;;;9.10;;
42384;SDS011;28042;43.986;22.860;2023-04-24T07:07:30;11.15;;;8.88;;
42384;SDS011;28042;43.986;22.860;2023-04-24T07:09:56;11.18;;;8.38;;
42384;SDS011;28042;43.986;22.860;2023-04-24T07:12:22;13.35;;;8.80;;
42384;SDS011;28042;43.986;22.860;2023-04-24T07:14:48;13.60;;;8.85;;
42384;SDS011;28042;43.986;22.860;2023-04-24T07:17:13;12.55;;;9.20;;
42384;SDS011;28042;43.986;22.860;2023-04-24T07:19:39;13.80;;;9.52;;
42384;SDS011;28042;43.986;22.860;2023-04-24T07:22:05;15.15;;;8.65;;
42384;SDS011;28042;43.986;22.860;2023-04-24T07:24:31;15.40;;;9.05;;
42384;SDS011;28042;43.986;22.860;2023-04-24T07:26:59;12.98;;;8.95;;
42384;SDS011;28042;43.986;22.860;2023-04-24T07:29:26;16.27;;;8.63;;
42384;SDS011;28042;43.986;22.860;2023-04-24T07:31:52;12.82;;;8.40;;
42384;SDS011;28042;43.986;22.860;2023-04-24T07:34:19;18.27;;;8.35;;
42384;SDS011;28042;43.986;22.860;2023-04-24T07:36:45;16.33;;;8.00;;
42384;SDS011;28042;43.986;22.860;2023-04-24T07:39:11;12.82;;;8.20;;
42384;SDS011;28042;43.986;22.860;2023-04-24T07:41:36;10.73;;;8.00;;
42384;SDS011;28042;43.986;22.860;2023-04-24T07:44:02;9.07;;;7.43;;
42384;SDS011;28042;43.986;22.860;2023-04-24T07:46:27;11.93;;;8.52;;
42384;SDS011;28042;43.986;22.860;2023-04-24T07:51:22;12.35;;;7.53;;
42384;SDS011;28042;43.986;22.860;2023-04-24T07:53:47;9.75;;;7.07;;
42384;SDS011;28042;43.986;22.860;2023-04-24T07:56:13;12.02;;;8.25;;
42384;SDS011;28042;43.986;22.860;2023-04-24T07:58:38;12.95;;;8.20;;
42384;SDS011;28042;43.986;22.860;2023-04-24T08:01:04;13.68;;;7.43;;
42384;SDS011;28042;43.986;22.860;2023-04-24T08:03:29;10.50;;;6.65;;
42384;SDS011;28042;43.986;22.860;2023-04-24T08:05:55;12.75;;;6.60;;
42384;SDS011;28042;43.986;22.860;2023-04-24T08:08:21;17.02;;;7.10;;
42384;SDS011;28042;43.986;22.860;2023-04-24T08:10:48;9.23;;;6.68;;
42384;SDS011;28042;43.986;22.860;2023-04-24T08:13:14;11.45;;;6.75;;
42384;SDS011;28042;43.986;22.860;2023-04-24T08:15:39;9.88;;;6.90;;
42384;SDS011;28042;43.986;22.860;2023-04-24T08:18:05;12.05;;;7.95;;
42384;SDS011;28042;43.986;22.860;2023-04-24T08:20:31;15.55;;;7.80;;
42384;SDS011;28042;43.986;22.860;2023-04-24T08:22:56;9.57;;;7.18;;
42384;SDS011;28042;43.986;22.860;2023-04-24T08:25:22;11.27;;;7.10;;
42384;SDS011;28042;43.986;22.860;2023-04-24T08:27:49;12.32;;;6.90;;
42384;SDS011;28042;43.986;22.860;2023-04-24T08:30:15;10.85;;;8.15;;
42384;SDS011;28042;43.986;22.860;2023-04-24T08:32:40;8.93;;;6.68;;
42384;SDS011;28042;43.986;22.860;2023-04-24T08:35:06;36.25;;;9.05;;
42384;SDS011;28042;43.986;22.860;2023-04-24T08:37:34;12.18;;;7.38;;
42384;SDS011;28042;43.986;22.860;2023-04-24T08:39:59;8.30;;;6.63;;
42384;SDS011;28042;43.986;22.860;2023-04-24T08:42:25;8.75;;;6.75;;
42384;SDS011;28042;43.986;22.860;2023-04-24T08:44:53;14.52;;;6.90;;
42384;SDS011;28042;43.986;22.860;2023-04-24T08:47:20;8.43;;;6.10;;
42384;SDS011;28042;43.986;22.860;2023-04-24T08:49:46;13.05;;;6.57;;
42384;SDS011;28042;43.986;22.860;2023-04-24T08:52:13;19.55;;;7.18;;
42384;SDS011;28042;43.986;22.860;2023-04-24T08:54:38;22.95;;;6.70;;
42384;SDS011;28042;43.986;22.860;2023-04-24T08:57:05;10.23;;;6.68;;
42384;SDS011;28042;43.986;22.860;2023-04-24T08:59:33;10.52;;;6.72;;
42384;SDS011;28042;43.986;22.860;2023-04-24T09:02:00;11.63;;;7.40;;
42384;SDS011;28042;43.986;22.860;2023-04-24T09:04:28;11.05;;;7.20;;
42384;SDS011;28042;43.986;22.860;2023-04-24T09:06:55;10.95;;;7.25;;
42384;SDS011;28042;43.986;22.860;2023-04-24T09:09:22;11.85;;;7.70;;
42384;SDS011;28042;43.986;22.860;2023-04-24T09:11:49;9.23;;;7.60;;
42384;SDS011;28042;43.986;22.860;2023-04-24T09:14:16;10.33;;;8.67;;
42384;SDS011;28042;43.986;22.860;2023-04-24T09:16:43;10.80;;;9.37;;
42384;SDS011;28042;43.986;22.860;2023-04-24T09:19:08;9.88;;;8.05;;
42384;SDS011;28042;43.986;22.860;2023-04-24T09:21:34;13.32;;;9.35;;
42384;SDS011;28042;43.986;22.860;2023-04-24T09:24:01;12.27;;;9.32;;
42384;SDS011;28042;43.986;22.860;2023-04-24T09:26:31;11.55;;;9.10;;
42384;SDS011;28042;43.986;22.860;2023-04-24T09:28:57;13.20;;;8.30;;
42384;SDS011;28042;43.986;22.860;2023-04-24T09:31:24;13.15;;;8.50;;
42384;SDS011;28042;43.986;22.860;2023-04-24T09:34:14;16.60;;;9.43;;
42384;SDS011;28042;43.986;22.860;2023-04-24T09:36:39;10.07;;;8.07;;
42384;SDS011;28042;43.986;22.860;2023-04-24T09:39:09;12.50;;;9.15;;
42384;SDS011;28042;43.986;22.860;2023-04-24T09:41:53;10.75;;;7.47;;
42384;SDS011;28042;43.986;22.860;2023-04-24T09:44:26;13.25;;;7.85;;
42384;SDS011;28042;43.986;22.860;2023-04-24T09:46:53;12.73;;;7.13;;
42384;SDS011;28042;43.986;22.860;2023-04-24T09:52:07;9.20;;;7.18;;
42384;SDS011;28042;43.986;22.860;2023-04-24T09:54:33;9.07;;;7.80;;
42384;SDS011;28042;43.986;22.860;2023-04-24T09:57:01;11.65;;;6.85;;
42384;SDS011;28042;43.986;22.860;2023-04-24T09:59:27;8.45;;;6.20;;
42384;SDS011;28042;43.986;22.860;2023-04-24T10:01:53;10.55;;;7.13;;
42384;SDS011;28042;43.986;22.860;2023-04-24T10:04:22;11.20;;;7.43;;
42384;SDS011;28042;43.986;22.860;2023-04-24T10:06:49;12.20;;;8.00;;
42384;SDS011;28042;43.986;22.860;2023-04-24T10:09:19;8.67;;;7.47;;
42384;SDS011;28042;43.986;22.860;2023-04-24T10:11:48;12.13;;;7.57;;
42384;SDS011;28042;43.986;22.860;2023-04-24T10:14:16;9.18;;;7.53;;
42384;SDS011;28042;43.986;22.860;2023-04-24T10:16:43;9.65;;;7.78;;
42384;SDS011;28042;43.986;22.860;2023-04-24T10:19:11;10.20;;;7.68;;
42384;SDS011;28042;43.986;22.860;2023-04-24T10:21:38;11.38;;;8.73;;
42384;SDS011;28042;43.986;22.860;2023-04-24T10:24:07;11.00;;;7.80;;
42384;SDS011;28042;43.986;22.860;2023-04-24T10:26:34;12.05;;;8.25;;
42384;SDS011;28042;43.986;22.860;2023-04-24T10:29:00;13.55;;;8.05;;
42384;SDS011;28042;43.986;22.860;2023-04-24T10:31:27;11.40;;;8.05;;
42384;SDS011;28042;43.986;22.860;2023-04-24T10:33:55;11.07;;;8.05;;
42384;SDS011;28042;43.986;22.860;2023-04-24T10:36:23;13.40;;;7.75;;
42384;SDS011;28042;43.986;22.860;2023-04-24T10:38:52;10.30;;;8.40;;
42384;SDS011;28042;43.986;22.860;2023-04-24T10:41:19;11.18;;;8.73;;
42384;SDS011;28042;43.986;22.860;2023-04-24T10:43:48;11.07;;;8.25;;
42384;SDS011;28042;43.986;22.860;2023-04-24T10:46:29;12.32;;;7.60;;
42384;SDS011;28042;43.986;22.860;2023-04-24T10:48:55;8.80;;;7.55;;
42384;SDS011;28042;43.986;22.860;2023-04-24T10:51:23;10.77;;;8.20;;
42384;SDS011;28042;43.986;22.860;2023-04-24T10:53:50;13.10;;;7.20;;
42384;SDS011;28042;43.986;22.860;2023-04-24T10:56:16;14.68;;;7.78;;
42384;SDS011;28042;43.986;22.860;2023-04-24T11:04:00;9.25;;;7.93;;
42384;SDS011;28042;43.986;22.860;2023-04-24T11:06:34;17.30;;;8.07;;
42384;SDS011;28042;43.986;22.860;2023-04-24T11:09:04;9.48;;;7.35;;
42384;SDS011;28042;43.986;22.860;2023-04-24T11:11:31;10.95;;;8.25;;
42384;SDS011;28042;43.986;22.860;2023-04-24T11:19:07;9.82;;;7.03;;
42384;SDS011;28042;43.986;22.860;2023-04-24T11:21:40;11.13;;;6.93;;
42384;SDS011;28042;43.986;22.860;2023-04-24T11:24:23;9.55;;;7.22;;
42384;SDS011;28042;43.986;22.860;2023-04-24T11:35:05;11.32;;;6.65;;
42384;SDS011;28042;43.986;22.860;2023-04-24T11:40:04;8.77;;;6.38;;
42384;SDS011;28042;43.986;22.860;2023-04-24T11:42:35;9.75;;;6.57;;
42384;SDS011;28042;43.986;22.860;2023-04-24T11:45:14;7.30;;;5.53;;
42384;SDS011;28042;43.986;22.860;2023-04-24T11:47:41;8.98;;;6.07;;
42384;SDS011;28042;43.986;22.860;2023-04-24T11:50:08;9.53;;;6.20;;
42384;SDS011;28042;43.986;22.860;2023-04-24T11:52:42;10.27;;;6.88;;
42384;SDS011;28042;43.986;22.860;2023-04-24T11:57:47;10.27;;;6.05;;
42384;SDS011;28042;43.986;22.860;2023-04-24T12:00:19;9.88;;;7.03;;
42384;SDS011;28042;43.986;22.860;2023-04-24T12:02:46;9.60;;;6.15;;
42384;SDS011;28042;43.986;22.860;2023-04-24T12:05:22;10.07;;;5.63;;
42384;SDS011;28042;43.986;22.860;2023-04-24T12:07:49;9.17;;;5.90;;
42384;SDS011;28042;43.986;22.860;2023-04-24T12:10:19;16.08;;;6.40;;
42384;SDS011;28042;43.986;22.860;2023-04-24T12:12:52;6.78;;;4.85;;
42384;SDS011;28042;43.986;22.860;2023-04-24T12:15:20;8.70;;;5.93;;
42384;SDS011;28042;43.986;22.860;2023-04-24T12:17:47;8.00;;;5.60;;
42384;SDS011;28042;43.986;22.860;2023-04-24T12:20:13;10.70;;;6.15;;
42384;SDS011;28042;43.986;22.860;2023-04-24T12:25:10;10.32;;;5.72;;
42384;SDS011;28042;43.986;22.860;2023-04-24T12:27:36;7.53;;;4.75;;
42384;SDS011;28042;43.986;22.860;2023-04-24T12:30:03;7.75;;;5.85;;
42384;SDS011;28042;43.986;22.860;2023-04-24T12:32:30;8.13;;;5.38;;
42384;SDS011;28042;43.986;22.860;2023-04-24T12:34:57;8.60;;;6.00;;
42384;SDS011;28042;43.986;22.860;2023-04-24T12:37:23;9.88;;;6.18;;
42384;SDS011;28042;43.986;22.860;2023-04-24T12:42:32;8.68;;;6.05;;
42384;SDS011;28042;43.986;22.860;2023-04-24T12:45:03;9.70;;;6.47;;
42384;SDS011;28042;43.986;22.860;2023-04-24T12:47:31;8.05;;;6.07;;
42384;SDS011;28042;43.986;22.860;2023-04-24T12:49:58;12.18;;;6.20;;
42384;SDS011;28042;43.986;22.860;2023-04-24T12:52:24;7.88;;;5.90;;
42384;SDS011;28042;43.986;22.860;2023-04-24T12:54:55;8.73;;;5.57;;
42384;SDS011;28042;43.986;22.860;2023-04-24T12:57:22;10.23;;;6.43;;
42384;SDS011;28042;43.986;22.860;2023-04-24T12:59:49;8.70;;;5.72;;
42384;SDS011;28042;43.986;22.860;2023-04-24T13:02:15;7.55;;;5.78;;
42384;SDS011;28042;43.986;22.860;2023-04-24T13:04:47;6.85;;;5.20;;
42384;SDS011;28042;43.986;22.860;2023-04-24T13:07:13;11.52;;;5.72;;
42384;SDS011;28042;43.986;22.860;2023-04-24T13:09:39;8.63;;;5.10;;
42384;SDS011;28042;43.986;22.860;2023-04-24T13:12:06;7.35;;;4.68;;
42384;SDS011;28042;43.986;22.860;2023-04-24T13:14:32;8.97;;;5.37;;
42384;SDS011;28042;43.986;22.860;2023-04-24T13:16:58;6.95;;;4.40;;
42384;SDS011;28042;43.986;22.860;2023-04-24T13:19:24;7.80;;;4.72;;
42384;SDS011;28042;43.986;22.860;2023-04-24T13:21:54;10.48;;;5.10;;
42384;SDS011;28042;43.986;22.860;2023-04-24T13:24:24;8.77;;;5.20;;
42384;SDS011;28042;43.986;22.860;2023-04-24T13:26:50;6.20;;;4.63;;
42384;SDS011;28042;43.986;22.860;2023-04-24T13:29:16;9.68;;;5.70;;
42384;SDS011;28042;43.986;22.860;2023-04-24T13:31:42;6.93;;;5.32;;
42384;SDS011;28042;43.986;22.860;2023-04-24T13:34:07;9.88;;;4.47;;
42384;SDS011;28042;43.986;22.860;2023-04-24T13:36:33;7.85;;;4.82;;
42384;SDS011;28042;43.986;22.860;2023-04-24T13:38:58;6.68;;;4.50;;
42384;SDS011;28042;43.986;22.860;2023-04-24T13:41:24;6.82;;;3.72;;
42384;SDS011;28042;43.986;22.860;2023-04-24T13:43:49;7.32;;;4.28;;
42384;SDS011;28042;43.986;22.860;2023-04-24T13:46:15;5.85;;;4.05;;
42384;SDS011;28042;43.986;22.860;2023-04-24T13:48:41;7.90;;;3.90;;
42384;SDS011;28042;43.986;22.860;2023-04-24T13:51:07;7.95;;;4.22;;
42384;SDS011;28042;43.986;22.860;2023-04-24T13:53:32;7.50;;;4.57;;
42384;SDS011;28042;43.986;22.860;2023-04-24T13:56:01;5.22;;;3.55;;
42384;SDS011;28042;43.986;22.860;2023-04-24T13:58:27;7.28;;;3.60;;
42384;SDS011;28042;43.986;22.860;2023-04-24T14:00:52;8.25;;;3.85;;
42384;SDS011;28042;43.986;22.860;2023-04-24T14:03:18;6.32;;;4.03;;
42384;SDS011;28042;43.986;22.860;2023-04-24T14:05:43;6.05;;;4.03;;
42384;SDS011;28042;43.986;22.860;2023-04-24T14:08:09;6.13;;;3.97;;
42384;SDS011;28042;43.986;22.860;2023-04-24T14:10:34;7.97;;;3.45;;
42384;SDS011;28042;43.986;22.860;2023-04-24T14:13:00;5.57;;;3.65;;
42384;SDS011;28042;43.986;22.860;2023-04-24T14:15:25;7.57;;;3.72;;
42384;SDS011;28042;43.986;22.860;2023-04-24T14:17:51;6.57;;;3.30;;
42384;SDS011;28042;43.986;22.860;2023-04-24T14:20:17;6.70;;;3.53;;
42384;SDS011;28042;43.986;22.860;2023-04-24T14:22:42;7.68;;;4.25;;
42384;SDS011;28042;43.986;22.860;2023-04-24T14:25:09;10.88;;;4.00;;
42384;SDS011;28042;43.986;22.860;2023-04-24T14:27:36;7.43;;;3.05;;
42384;SDS011;28042;43.986;22.860;2023-04-24T14:30:02;7.32;;;3.20;;
42384;SDS011;28042;43.986;22.860;2023-04-24T14:32:28;6.63;;;3.22;;
42384;SDS011;28042;43.986;22.860;2023-04-24T14:34:53;7.95;;;3.63;;
42384;SDS011;28042;43.986;22.860;2023-04-24T14:37:19;4.93;;;3.00;;
42384;SDS011;28042;43.986;22.860;2023-04-24T14:39:45;8.48;;;4.95;;
42384;SDS011;28042;43.986;22.860;2023-04-24T14:42:10;11.65;;;7.28;;
42384;SDS011;28042;43.986;22.860;2023-04-24T14:44:36;9.50;;;5.22;;
42384;SDS011;28042;43.986;22.860;2023-04-24T14:47:01;6.40;;;4.03;;
42384;SDS011;28042;43.986;22.860;2023-04-24T14:49:27;6.03;;;4.07;;
42384;SDS011;28042;43.986;22.860;2023-04-24T14:51:52;7.97;;;4.50;;
42384;SDS011;28042;43.986;22.860;2023-04-24T14:54:18;6.80;;;4.28;;
42384;SDS011;28042;43.986;22.860;2023-04-24T14:56:44;5.47;;;3.35;;